Dati Storici

Data ora Umidita' aria (%) Temperatura aria (°C) Rad globale (W/m²) Gonioanemometro (°) Tacoanemometro (m/s) Pioggia (mm)
24-10-2012 00:50 68.8 % 12.086 1.057 11.725 1.511 0
24-10-2012 00:40 68.3 % 12.31 0.811 17.913 1.828 0
24-10-2012 00:30 68.1 % 12.364 0.722 345.267 1.373 0
24-10-2012 00:20 67.8 % 12.435 0.632 355.465 0.887 0
24-10-2012 00:10 67.4 % 12.562 0.44 12.718 1.311 0
24-10-2012 00:00 66.5 % 12.861 0.606 2.196 0.408 0
23-10-2012 23:50 66.2 % 13.154 0.542 1.145 0.629 0
23-10-2012 23:40 66 % 13.148 0.285 21.473 0.925 0
23-10-2012 23:30 65.6 % 13.397 0.696 14.477 1.362 0
23-10-2012 23:20 66.2 % 13.574 0.889 11.905 1.309 0
23-10-2012 23:10 67.8 % 13.495 0.311 16.172 1.8 0
23-10-2012 23:00 69.6 % 13.361 0.375 8.363 0.533 0
23-10-2012 22:50 70.1 % 13.248 -0.048 354.917 0.531 0
23-10-2012 22:40 70.2 % 13.526 0.337 10.034 0.861 0
23-10-2012 22:30 70.5 % 13.607 -0.048 337.343 0.903 0
23-10-2012 22:20 70.2 % 13.707 0.029 358.267 0.127 0
23-10-2012 22:10 69.5 % 14.07 0.119 1.158 0.675 0
23-10-2012 22:00 68.9 % 14.339 -0.036 17.307 1.228 0
23-10-2012 21:50 68.2 % 14.38 -0.306 328.728 0.408 0
23-10-2012 21:40 67.5 % 14.627 -0.345 43.057 0.895 0

I dati sono presentati in modo automatico a scopo informativo. In seguito a verifica i dati possono subire modifiche o essere invalidati e non riportati negli archivi definitivi.